sensor_id;sensor_type;location;lat;lon;timestamp;temperature;humidity
23497;DHT22;11925;48.122;11.560;2023-07-13T00:01:41;20.30;99.90
23497;DHT22;11925;48.122;11.560;2023-07-13T00:04:09;20.30;99.90
23497;DHT22;11925;48.122;11.560;2023-07-13T00:06:38;20.30;99.90
23497;DHT22;11925;48.122;11.560;2023-07-13T00:09:06;20.30;99.90
23497;DHT22;11925;48.122;11.560;2023-07-13T00:11:35;20.30;99.90
23497;DHT22;11925;48.122;11.560;2023-07-13T00:14:03;20.30;99.90
23497;DHT22;11925;48.122;11.560;2023-07-13T00:16:33;20.30;99.90
23497;DHT22;11925;48.122;11.560;2023-07-13T00:19:03;20.20;99.90
23497;DHT22;11925;48.122;11.560;2023-07-13T00:21:32;20.30;99.90
23497;DHT22;11925;48.122;11.560;2023-07-13T00:24:00;20.30;99.90
23497;DHT22;11925;48.122;11.560;2023-07-13T00:26:29;20.30;99.90
23497;DHT22;11925;48.122;11.560;2023-07-13T00:28:59;20.30;99.90
23497;DHT22;11925;48.122;11.560;2023-07-13T00:31:29;20.30;99.90
23497;DHT22;11925;48.122;11.560;2023-07-13T00:33:57;20.30;99.90
23497;DHT22;11925;48.122;11.560;2023-07-13T00:36:30;20.20;99.90
23497;DHT22;11925;48.122;11.560;2023-07-13T00:38:58;20.20;99.90
23497;DHT22;11925;48.122;11.560;2023-07-13T00:41:26;20.20;99.90
23497;DHT22;11925;48.122;11.560;2023-07-13T00:43:55;20.20;99.90
23497;DHT22;11925;48.122;11.560;2023-07-13T00:46:27;20.30;99.90
23497;DHT22;11925;48.122;11.560;2023-07-13T00:48:58;20.30;99.90
23497;DHT22;11925;48.122;11.560;2023-07-13T00:51:32;20.30;99.90
23497;DHT22;11925;48.122;11.560;2023-07-13T00:54:05;20.30;99.90
23497;DHT22;11925;48.122;11.560;2023-07-13T00:56:35;20.40;99.90
23497;DHT22;11925;48.122;11.560;2023-07-13T00:59:07;20.30;99.90
23497;DHT22;11925;48.122;11.560;2023-07-13T01:01:36;20.20;99.90
23497;DHT22;11925;48.122;11.560;2023-07-13T01:04:05;20.20;99.90
23497;DHT22;11925;48.122;11.560;2023-07-13T01:06:37;20.20;99.90
23497;DHT22;11925;48.122;11.560;2023-07-13T01:09:08;20.20;99.90
23497;DHT22;11925;48.122;11.560;2023-07-13T01:11:37;20.20;99.90
23497;DHT22;11925;48.122;11.560;2023-07-13T01:14:05;20.20;99.90
23497;DHT22;11925;48.122;11.560;2023-07-13T01:16:36;20.10;99.90
23497;DHT22;11925;48.122;11.560;2023-07-13T01:19:12;20.20;99.90
23497;DHT22;11925;48.122;11.560;2023-07-13T01:21:50;20.10;99.90
23497;DHT22;11925;48.122;11.560;2023-07-13T01:24:19;20.20;99.90
23497;DHT22;11925;48.122;11.560;2023-07-13T01:26:49;20.20;99.90
23497;DHT22;11925;48.122;11.560;2023-07-13T01:29:17;20.20;99.90
23497;DHT22;11925;48.122;11.560;2023-07-13T01:31:45;20.20;99.90
23497;DHT22;11925;48.122;11.560;2023-07-13T01:34:13;20.20;99.90
23497;DHT22;11925;48.122;11.560;2023-07-13T01:36:44;20.10;99.90
23497;DHT22;11925;48.122;11.560;2023-07-13T01:39:12;20.10;99.90
23497;DHT22;11925;48.122;11.560;2023-07-13T01:41:41;20.10;99.90
23497;DHT22;11925;48.122;11.560;2023-07-13T01:44:09;20.10;99.90
23497;DHT22;11925;48.122;11.560;2023-07-13T01:46:38;20.20;99.90
23497;DHT22;11925;48.122;11.560;2023-07-13T01:49:06;20.20;99.90
23497;DHT22;11925;48.122;11.560;2023-07-13T01:51:34;20.20;99.90
23497;DHT22;11925;48.122;11.560;2023-07-13T01:54:05;20.20;99.90
23497;DHT22;11925;48.122;11.560;2023-07-13T01:56:33;20.10;99.90
23497;DHT22;11925;48.122;11.560;2023-07-13T01:59:02;20.10;99.90
23497;DHT22;11925;48.122;11.560;2023-07-13T02:01:30;20.10;99.90
23497;DHT22;11925;48.122;11.560;2023-07-13T02:03:58;20.10;99.90
23497;DHT22;11925;48.122;11.560;2023-07-13T02:06:28;20.10;99.90
23497;DHT22;11925;48.122;11.560;2023-07-13T02:08:58;20.10;99.90
23497;DHT22;11925;48.122;11.560;2023-07-13T02:11:28;20.10;99.90
23497;DHT22;11925;48.122;11.560;2023-07-13T02:14:00;20.10;99.90
23497;DHT22;11925;48.122;11.560;2023-07-13T02:16:29;20.10;99.90
23497;DHT22;11925;48.122;11.560;2023-07-13T02:18:58;20.10;99.90
23497;DHT22;11925;48.122;11.560;2023-07-13T02:21:27;20.10;99.90
23497;DHT22;11925;48.122;11.560;2023-07-13T02:23:55;20.10;99.90
23497;DHT22;11925;48.122;11.560;2023-07-13T02:26:24;20.10;99.90
23497;DHT22;11925;48.122;11.560;2023-07-13T02:28:54;20.10;99.90
23497;DHT22;11925;48.122;11.560;2023-07-13T02:31:23;20.10;99.90
23497;DHT22;11925;48.122;11.560;2023-07-13T02:33:53;20.10;99.90
23497;DHT22;11925;48.122;11.560;2023-07-13T02:36:21;20.10;99.90
23497;DHT22;11925;48.122;11.560;2023-07-13T02:38:50;20.10;99.90
23497;DHT22;11925;48.122;11.560;2023-07-13T02:41:18;20.10;99.90
23497;DHT22;11925;48.122;11.560;2023-07-13T02:43:47;20.10;99.90
23497;DHT22;11925;48.122;11.560;2023-07-13T02:46:16;20.10;99.90
23497;DHT22;11925;48.122;11.560;2023-07-13T02:48:46;20.10;99.90
23497;DHT22;11925;48.122;11.560;2023-07-13T02:51:14;20.10;99.90
23497;DHT22;11925;48.122;11.560;2023-07-13T02:53:43;20.10;99.90
23497;DHT22;11925;48.122;11.560;2023-07-13T02:56:11;20.10;99.90
23497;DHT22;11925;48.122;11.560;2023-07-13T02:58:43;20.10;99.90
23497;DHT22;11925;48.122;11.560;2023-07-13T03:01:12;20.00;99.90
23497;DHT22;11925;48.122;11.560;2023-07-13T03:03:41;20.00;99.90
23497;DHT22;11925;48.122;11.560;2023-07-13T03:06:10;20.00;99.90
23497;DHT22;11925;48.122;11.560;2023-07-13T03:08:46;20.00;99.90
23497;DHT22;11925;48.122;11.560;2023-07-13T03:11:17;20.00;99.90
23497;DHT22;11925;48.122;11.560;2023-07-13T03:13:55;20.00;99.90
23497;DHT22;11925;48.122;11.560;2023-07-13T03:16:24;20.00;99.90
23497;DHT22;11925;48.122;11.560;2023-07-13T03:18:55;19.90;99.90
23497;DHT22;11925;48.122;11.560;2023-07-13T03:21:23;20.00;99.90
23497;DHT22;11925;48.122;11.560;2023-07-13T03:23:52;20.00;99.90
23497;DHT22;11925;48.122;11.560;2023-07-13T03:26:20;20.00;99.90
23497;DHT22;11925;48.122;11.560;2023-07-13T03:28:49;20.00;99.90
23497;DHT22;11925;48.122;11.560;2023-07-13T03:31:26;20.00;99.90
23497;DHT22;11925;48.122;11.560;2023-07-13T03:33:57;19.90;99.90
23497;DHT22;11925;48.122;11.560;2023-07-13T03:36:29;20.00;99.90
23497;DHT22;11925;48.122;11.560;2023-07-13T03:39:02;19.90;99.90
23497;DHT22;11925;48.122;11.560;2023-07-13T03:41:37;20.00;99.90
23497;DHT22;11925;48.122;11.560;2023-07-13T03:44:05;19.90;99.90
23497;DHT22;11925;48.122;11.560;2023-07-13T03:46:34;19.90;99.90
23497;DHT22;11925;48.122;11.560;2023-07-13T03:49:04;19.90;99.90
23497;DHT22;11925;48.122;11.560;2023-07-13T03:51:32;19.90;99.90
23497;DHT22;11925;48.122;11.560;2023-07-13T03:54:01;19.90;99.90
23497;DHT22;11925;48.122;11.560;2023-07-13T03:56:30;19.90;99.90
23497;DHT22;11925;48.122;11.560;2023-07-13T03:59:01;19.90;99.90
23497;DHT22;11925;48.122;11.560;2023-07-13T04:01:30;19.90;99.90
23497;DHT22;11925;48.122;11.560;2023-07-13T04:03:59;20.00;99.90
23497;DHT22;11925;48.122;11.560;2023-07-13T04:06:32;20.00;99.90
23497;DHT22;11925;48.122;11.560;2023-07-13T04:09:01;20.00;99.90
23497;DHT22;11925;48.122;11.560;2023-07-13T04:11:33;20.00;99.90
23497;DHT22;11925;48.122;11.560;2023-07-13T04:14:03;20.00;99.90
23497;DHT22;11925;48.122;11.560;2023-07-13T04:16:33;19.90;99.90
23497;DHT22;11925;48.122;11.560;2023-07-13T04:19:02;19.90;99.90
23497;DHT22;11925;48.122;11.560;2023-07-13T04:21:32;19.90;99.90
23497;DHT22;11925;48.122;11.560;2023-07-13T04:24:00;20.00;99.90
23497;DHT22;11925;48.122;11.560;2023-07-13T04:26:30;19.90;99.90
23497;DHT22;11925;48.122;11.560;2023-07-13T04:28:58;20.00;99.90
23497;DHT22;11925;48.122;11.560;2023-07-13T04:31:27;19.90;99.90
23497;DHT22;11925;48.122;11.560;2023-07-13T04:33:55;19.90;99.90
23497;DHT22;11925;48.122;11.560;2023-07-13T04:36:24;19.90;99.90
23497;DHT22;11925;48.122;11.560;2023-07-13T04:38:55;19.90;99.90
23497;DHT22;11925;48.122;11.560;2023-07-13T04:41:23;19.90;99.90
23497;DHT22;11925;48.122;11.560;2023-07-13T04:43:52;20.00;99.90
23497;DHT22;11925;48.122;11.560;2023-07-13T04:46:23;19.90;99.90
23497;DHT22;11925;48.122;11.560;2023-07-13T04:48:51;19.90;99.90
23497;DHT22;11925;48.122;11.560;2023-07-13T04:51:20;19.90;99.90
23497;DHT22;11925;48.122;11.560;2023-07-13T04:53:49;19.90;99.90
23497;DHT22;11925;48.122;11.560;2023-07-13T04:56:25;19.90;99.90
23497;DHT22;11925;48.122;11.560;2023-07-13T04:58:53;19.90;99.90
23497;DHT22;11925;48.122;11.560;2023-07-13T05:01:22;19.90;99.90
23497;DHT22;11925;48.122;11.560;2023-07-13T05:03:50;19.90;99.90
23497;DHT22;11925;48.122;11.560;2023-07-13T05:06:18;19.90;99.90
23497;DHT22;11925;48.122;11.560;2023-07-13T05:08:47;19.90;99.90
23497;DHT22;11925;48.122;11.560;2023-07-13T05:11:15;19.90;99.90
23497;DHT22;11925;48.122;11.560;2023-07-13T05:13:45;19.90;99.90
23497;DHT22;11925;48.122;11.560;2023-07-13T05:16:13;19.90;99.90
23497;DHT22;11925;48.122;11.560;2023-07-13T05:18:42;19.90;99.90
23497;DHT22;11925;48.122;11.560;2023-07-13T05:21:11;19.90;99.90
23497;DHT22;11925;48.122;11.560;2023-07-13T05:23:40;19.90;99.90
23497;DHT22;11925;48.122;11.560;2023-07-13T05:26:10;19.80;99.90
23497;DHT22;11925;48.122;11.560;2023-07-13T05:28:38;19.80;99.90
23497;DHT22;11925;48.122;11.560;2023-07-13T05:31:09;19.80;99.90
23497;DHT22;11925;48.122;11.560;2023-07-13T05:33:38;19.90;99.90
23497;DHT22;11925;48.122;11.560;2023-07-13T05:36:07;19.80;99.90
23497;DHT22;11925;48.122;11.560;2023-07-13T05:38:35;19.90;99.90
23497;DHT22;11925;48.122;11.560;2023-07-13T05:41:04;19.80;99.90
23497;DHT22;11925;48.122;11.560;2023-07-13T05:43:33;19.80;99.90
23497;DHT22;11925;48.122;11.560;2023-07-13T05:46:01;19.80;99.90
23497;DHT22;11925;48.122;11.560;2023-07-13T05:48:31;19.80;99.90
23497;DHT22;11925;48.122;11.560;2023-07-13T05:50:59;19.80;99.90
23497;DHT22;11925;48.122;11.560;2023-07-13T05:53:28;19.80;99.90
23497;DHT22;11925;48.122;11.560;2023-07-13T05:55:55;19.80;99.90
23497;DHT22;11925;48.122;11.560;2023-07-13T05:58:27;19.80;99.90
23497;DHT22;11925;48.122;11.560;2023-07-13T06:01:01;19.80;99.90
23497;DHT22;11925;48.122;11.560;2023-07-13T06:03:32;19.80;99.90
23497;DHT22;11925;48.122;11.560;2023-07-13T06:06:00;19.90;99.90
23497;DHT22;11925;48.122;11.560;2023-07-13T06:08:29;19.80;99.90
23497;DHT22;11925;48.122;11.560;2023-07-13T06:11:02;19.80;99.90
23497;DHT22;11925;48.122;11.560;2023-07-13T06:13:30;19.80;99.90
23497;DHT22;11925;48.122;11.560;2023-07-13T06:16:00;19.80;99.90
23497;DHT22;11925;48.122;11.560;2023-07-13T06:18:33;19.90;99.90
23497;DHT22;11925;48.122;11.560;2023-07-13T06:21:05;19.80;99.90
23497;DHT22;11925;48.122;11.560;2023-07-13T06:23:33;19.80;99.90
23497;DHT22;11925;48.122;11.560;2023-07-13T06:26:02;19.80;99.90
23497;DHT22;11925;48.122;11.560;2023-07-13T06:28:30;19.80;99.90
23497;DHT22;11925;48.122;11.560;2023-07-13T06:30:59;19.80;99.90
23497;DHT22;11925;48.122;11.560;2023-07-13T06:33:28;19.80;99.90
23497;DHT22;11925;48.122;11.560;2023-07-13T06:35:58;19.80;99.90
23497;DHT22;11925;48.122;11.560;2023-07-13T06:38:26;19.80;99.90
23497;DHT22;11925;48.122;11.560;2023-07-13T06:40:54;19.80;99.90
23497;DHT22;11925;48.122;11.560;2023-07-13T06:43:23;19.80;99.90
23497;DHT22;11925;48.122;11.560;2023-07-13T06:45:54;19.80;99.90
23497;DHT22;11925;48.122;11.560;2023-07-13T06:48:23;19.80;99.90
23497;DHT22;11925;48.122;11.560;2023-07-13T06:50:51;19.90;99.90
23497;DHT22;11925;48.122;11.560;2023-07-13T06:53:21;19.90;99.90
23497;DHT22;11925;48.122;11.560;2023-07-13T06:55:50;19.90;99.90
23497;DHT22;11925;48.122;11.560;2023-07-13T06:58:19;19.90;99.90
23497;DHT22;11925;48.122;11.560;2023-07-13T07:00:50;19.90;99.90
23497;DHT22;11925;48.122;11.560;2023-07-13T07:03:20;19.90;99.90
23497;DHT22;11925;48.122;11.560;2023-07-13T07:05:48;19.90;99.90
23497;DHT22;11925;48.122;11.560;2023-07-13T07:08:16;20.00;99.90
23497;DHT22;11925;48.122;11.560;2023-07-13T07:10:46;19.90;99.90
23497;DHT22;11925;48.122;11.560;2023-07-13T07:36:04;19.80;99.90
23497;DHT22;11925;48.122;11.560;2023-07-13T07:38:35;19.80;99.90
23497;DHT22;11925;48.122;11.560;2023-07-13T07:41:04;19.80;99.90
23497;DHT22;11925;48.122;11.560;2023-07-13T07:43:37;19.80;99.90
23497;DHT22;11925;48.122;11.560;2023-07-13T07:46:06;19.80;99.90
23497;DHT22;11925;48.122;11.560;2023-07-13T07:48:34;19.80;99.90
23497;DHT22;11925;48.122;11.560;2023-07-13T07:51:03;19.80;99.90
23497;DHT22;11925;48.122;11.560;2023-07-13T07:53:31;19.80;99.90
23497;DHT22;11925;48.122;11.560;2023-07-13T07:56:00;19.80;99.90
23497;DHT22;11925;48.122;11.560;2023-07-13T07:58:50;19.70;99.90
23497;DHT22;11925;48.122;11.560;2023-07-13T08:01:21;19.70;99.90
23497;DHT22;11925;48.122;11.560;2023-07-13T08:03:52;19.70;99.90
23497;DHT22;11925;48.122;11.560;2023-07-13T08:06:24;19.80;99.90
23497;DHT22;11925;48.122;11.560;2023-07-13T08:08:55;19.80;99.90
23497;DHT22;11925;48.122;11.560;2023-07-13T08:11:24;19.80;99.90
23497;DHT22;11925;48.122;11.560;2023-07-13T08:13:56;19.80;99.90
23497;DHT22;11925;48.122;11.560;2023-07-13T08:16:25;19.70;99.90
23497;DHT22;11925;48.122;11.560;2023-07-13T08:18:54;19.70;99.90
23497;DHT22;11925;48.122;11.560;2023-07-13T08:21:22;19.70;99.90
23497;DHT22;11925;48.122;11.560;2023-07-13T08:23:51;19.70;99.90
23497;DHT22;11925;48.122;11.560;2023-07-13T08:26:19;19.70;99.90
23497;DHT22;11925;48.122;11.560;2023-07-13T08:31:52;19.80;99.90
23497;DHT22;11925;48.122;11.560;2023-07-13T08:34:21;19.70;99.90
23497;DHT22;11925;48.122;11.560;2023-07-13T08:36:49;19.70;99.90
23497;DHT22;11925;48.122;11.560;2023-07-13T08:39:18;19.70;99.90
23497;DHT22;11925;48.122;11.560;2023-07-13T08:41:47;19.70;99.90
23497;DHT22;11925;48.122;11.560;2023-07-13T08:44:19;19.70;99.90
23497;DHT22;11925;48.122;11.560;2023-07-13T08:46:49;19.70;99.90
23497;DHT22;11925;48.122;11.560;2023-07-13T08:54:28;19.70;99.90
23497;DHT22;11925;48.122;11.560;2023-07-13T08:56:57;19.60;99.90
23497;DHT22;11925;48.122;11.560;2023-07-13T08:59:28;19.70;99.90
23497;DHT22;11925;48.122;11.560;2023-07-13T09:02:16;19.60;99.90
23497;DHT22;11925;48.122;11.560;2023-07-13T09:04:49;19.60;99.90
23497;DHT22;11925;48.122;11.560;2023-07-13T09:07:29;19.60;99.90
23497;DHT22;11925;48.122;11.560;2023-07-13T09:10:14;19.70;99.90
23497;DHT22;11925;48.122;11.560;2023-07-13T11:48:25;20.10;99.90
23497;DHT22;11925;48.122;11.560;2023-07-13T11:50:56;20.10;99.90
23497;DHT22;11925;48.122;11.560;2023-07-13T11:53:27;20.10;99.90
23497;DHT22;11925;48.122;11.560;2023-07-13T11:55:57;20.10;99.90
23497;DHT22;11925;48.122;11.560;2023-07-13T11:58:28;20.10;99.90
23497;DHT22;11925;48.122;11.560;2023-07-13T12:00:59;20.10;99.90
23497;DHT22;11925;48.122;11.560;2023-07-13T12:03:29;20.20;99.90
23497;DHT22;11925;48.122;11.560;2023-07-13T12:06:00;20.20;99.90
23497;DHT22;11925;48.122;11.560;2023-07-13T12:08:29;20.20;99.90
23497;DHT22;11925;48.122;11.560;2023-07-13T12:11:00;20.20;99.90
23497;DHT22;11925;48.122;11.560;2023-07-13T12:13:37;20.10;99.90
23497;DHT22;11925;48.122;11.560;2023-07-13T12:16:21;20.10;99.90
23497;DHT22;11925;48.122;11.560;2023-07-13T12:18:52;20.10;99.90
23497;DHT22;11925;48.122;11.560;2023-07-13T12:21:26;20.20;99.90
23497;DHT22;11925;48.122;11.560;2023-07-13T12:23:56;20.20;99.90
23497;DHT22;11925;48.122;11.560;2023-07-13T12:26:25;20.20;99.90
23497;DHT22;11925;48.122;11.560;2023-07-13T12:28:55;20.20;99.90
23497;DHT22;11925;48.122;11.560;2023-07-13T12:31:30;20.30;99.80
23497;DHT22;11925;48.122;11.560;2023-07-13T12:34:01;20.30;99.90
23497;DHT22;11925;48.122;11.560;2023-07-13T12:36:32;20.30;99.90
23497;DHT22;11925;48.122;11.560;2023-07-13T12:39:04;20.30;99.90
23497;DHT22;11925;48.122;11.560;2023-07-13T12:41:36;20.20;99.90
23497;DHT22;11925;48.122;11.560;2023-07-13T12:44:10;20.20;99.90
23497;DHT22;11925;48.122;11.560;2023-07-13T12:46:39;20.30;99.90
23497;DHT22;11925;48.122;11.560;2023-07-13T12:49:24;20.30;99.90
23497;DHT22;11925;48.122;11.560;2023-07-13T12:51:57;20.30;99.90
23497;DHT22;11925;48.122;11.560;2023-07-13T12:54:27;20.30;99.90
23497;DHT22;11925;48.122;11.560;2023-07-13T12:56:58;20.20;99.90
23497;DHT22;11925;48.122;11.560;2023-07-13T12:59:32;20.30;99.90
23497;DHT22;11925;48.122;11.560;2023-07-13T13:02:22;20.20;99.90
23497;DHT22;11925;48.122;11.560;2023-07-13T13:04:53;20.20;99.90
23497;DHT22;11925;48.122;11.560;2023-07-13T13:07:24;20.20;99.90
23497;DHT22;11925;48.122;11.560;2023-07-13T13:09:53;20.20;99.90
23497;DHT22;11925;48.122;11.560;2023-07-13T13:12:22;20.30;99.90
23497;DHT22;11925;48.122;11.560;2023-07-13T13:14:52;20.30;99.90
23497;DHT22;11925;48.122;11.560;2023-07-13T13:17:22;20.20;99.90
23497;DHT22;11925;48.122;11.560;2023-07-13T13:19:54;20.10;99.90
23497;DHT22;11925;48.122;11.560;2023-07-13T13:22:22;20.20;99.90
23497;DHT22;11925;48.122;11.560;2023-07-13T13:24:51;20.30;99.90
23497;DHT22;11925;48.122;11.560;2023-07-13T13:27:21;20.20;99.90
23497;DHT22;11925;48.122;11.560;2023-07-13T13:29:52;20.20;99.90
23497;DHT22;11925;48.122;11.560;2023-07-13T13:32:20;20.10;99.90
23497;DHT22;11925;48.122;11.560;2023-07-13T13:34:49;20.30;99.70
23497;DHT22;11925;48.122;11.560;2023-07-13T13:37:20;20.30;99.40
23497;DHT22;11925;48.122;11.560;2023-07-13T13:39:49;20.30;99.90
23497;DHT22;11925;48.122;11.560;2023-07-13T13:42:35;20.30;99.90
23497;DHT22;11925;48.122;11.560;2023-07-13T13:45:06;20.30;99.40
23497;DHT22;11925;48.122;11.560;2023-07-13T13:47:35;20.30;98.30
23497;DHT22;11925;48.122;11.560;2023-07-13T13:50:12;20.30;98.80
23497;DHT22;11925;48.122;11.560;2023-07-13T13:52:42;20.30;99.20
23497;DHT22;11925;48.122;11.560;2023-07-13T13:55:14;20.30;98.00
23497;DHT22;11925;48.122;11.560;2023-07-13T13:57:42;20.30;99.90
23497;DHT22;11925;48.122;11.560;2023-07-13T14:00:13;20.30;99.90
23497;DHT22;11925;48.122;11.560;2023-07-13T14:02:46;20.30;99.90
23497;DHT22;11925;48.122;11.560;2023-07-13T14:05:23;20.30;99.90
23497;DHT22;11925;48.122;11.560;2023-07-13T14:07:53;20.30;99.90
23497;DHT22;11925;48.122;11.560;2023-07-13T14:10:21;20.30;99.90
23497;DHT22;11925;48.122;11.560;2023-07-13T14:12:53;20.30;99.10
23497;DHT22;11925;48.122;11.560;2023-07-13T14:15:26;20.30;98.00
23497;DHT22;11925;48.122;11.560;2023-07-13T14:17:55;20.30;99.90
23497;DHT22;11925;48.122;11.560;2023-07-13T14:20:25;20.30;99.60
23497;DHT22;11925;48.122;11.560;2023-07-13T14:22:53;20.40;99.90
23497;DHT22;11925;48.122;11.560;2023-07-13T14:25:22;20.40;99.90
23497;DHT22;11925;48.122;11.560;2023-07-13T14:27:55;20.40;99.90
23497;DHT22;11925;48.122;11.560;2023-07-13T14:30:27;20.40;99.90
23497;DHT22;11925;48.122;11.560;2023-07-13T14:32:55;20.40;99.90
23497;DHT22;11925;48.122;11.560;2023-07-13T14:35:23;20.40;99.90
23497;DHT22;11925;48.122;11.560;2023-07-13T14:37:52;20.40;99.90
23497;DHT22;11925;48.122;11.560;2023-07-13T14:40:24;20.40;99.90
23497;DHT22;11925;48.122;11.560;2023-07-13T14:42:53;20.40;99.90
23497;DHT22;11925;48.122;11.560;2023-07-13T14:45:22;20.40;99.90
23497;DHT22;11925;48.122;11.560;2023-07-13T14:47:52;20.40;99.90
23497;DHT22;11925;48.122;11.560;2023-07-13T14:50:26;20.40;99.90
23497;DHT22;11925;48.122;11.560;2023-07-13T14:52:56;20.40;99.90
23497;DHT22;11925;48.122;11.560;2023-07-13T14:55:24;20.30;99.90
23497;DHT22;11925;48.122;11.560;2023-07-13T14:57:53;20.40;99.90
23497;DHT22;11925;48.122;11.560;2023-07-13T15:00:24;20.30;99.90
23497;DHT22;11925;48.122;11.560;2023-07-13T15:02:57;20.30;99.90
23497;DHT22;11925;48.122;11.560;2023-07-13T15:05:27;20.30;99.90
23497;DHT22;11925;48.122;11.560;2023-07-13T15:07:58;20.30;99.90
23497;DHT22;11925;48.122;11.560;2023-07-13T15:10:28;20.30;99.90
23497;DHT22;11925;48.122;11.560;2023-07-13T15:12:59;20.30;99.90
23497;DHT22;11925;48.122;11.560;2023-07-13T15:15:30;20.30;99.90
23497;DHT22;11925;48.122;11.560;2023-07-13T15:18:01;20.30;99.90
23497;DHT22;11925;48.122;11.560;2023-07-13T15:20:31;20.30;99.90
23497;DHT22;11925;48.122;11.560;2023-07-13T15:23:00;20.30;99.90
23497;DHT22;11925;48.122;11.560;2023-07-13T15:25:30;20.30;99.90
23497;DHT22;11925;48.122;11.560;2023-07-13T15:28:00;20.30;99.90
23497;DHT22;11925;48.122;11.560;2023-07-13T15:30:31;20.30;99.90
23497;DHT22;11925;48.122;11.560;2023-07-13T15:33:11;20.30;99.90
23497;DHT22;11925;48.122;11.560;2023-07-13T15:35:40;20.30;99.90
23497;DHT22;11925;48.122;11.560;2023-07-13T15:38:17;20.30;99.90
23497;DHT22;11925;48.122;11.560;2023-07-13T15:40:46;20.30;99.90
23497;DHT22;11925;48.122;11.560;2023-07-13T15:43:15;20.30;99.90
23497;DHT22;11925;48.122;11.560;2023-07-13T15:45:45;20.30;99.90
23497;DHT22;11925;48.122;11.560;2023-07-13T15:48:18;20.30;99.90
23497;DHT22;11925;48.122;11.560;2023-07-13T15:50:49;20.40;99.90
23497;DHT22;11925;48.122;11.560;2023-07-13T15:53:19;20.30;99.90
23497;DHT22;11925;48.122;11.560;2023-07-13T15:55:48;20.30;99.90
23497;DHT22;11925;48.122;11.560;2023-07-13T15:58:17;20.40;99.90
23497;DHT22;11925;48.122;11.560;2023-07-13T16:00:48;20.40;99.90
23497;DHT22;11925;48.122;11.560;2023-07-13T16:03:21;20.40;99.90
23497;DHT22;11925;48.122;11.560;2023-07-13T16:05:51;20.30;99.90
23497;DHT22;11925;48.122;11.560;2023-07-13T16:08:25;20.30;99.90
23497;DHT22;11925;48.122;11.560;2023-07-13T16:10:55;20.30;99.90
23497;DHT22;11925;48.122;11.560;2023-07-13T16:13:23;20.30;99.90
23497;DHT22;11925;48.122;11.560;2023-07-13T16:15:53;20.30;99.90
23497;DHT22;11925;48.122;11.560;2023-07-13T16:18:25;20.30;99.90
23497;DHT22;11925;48.122;11.560;2023-07-13T16:20:54;20.40;99.90
23497;DHT22;11925;48.122;11.560;2023-07-13T16:23:24;20.30;99.90
23497;DHT22;11925;48.122;11.560;2023-07-13T16:25:52;20.30;99.90
23497;DHT22;11925;48.122;11.560;2023-07-13T16:28:21;20.30;99.90
23497;DHT22;11925;48.122;11.560;2023-07-13T16:30:50;20.30;99.90
23497;DHT22;11925;48.122;11.560;2023-07-13T16:33:18;20.30;99.90
23497;DHT22;11925;48.122;11.560;2023-07-13T16:35:50;20.30;99.90
23497;DHT22;11925;48.122;11.560;2023-07-13T16:38:21;20.30;99.90
23497;DHT22;11925;48.122;11.560;2023-07-13T16:40:51;20.20;99.90
23497;DHT22;11925;48.122;11.560;2023-07-13T16:43:20;20.20;99.90
23497;DHT22;11925;48.122;11.560;2023-07-13T16:45:50;20.20;99.90
23497;DHT22;11925;48.122;11.560;2023-07-13T16:48:21;20.20;99.90
23497;DHT22;11925;48.122;11.560;2023-07-13T16:50:54;20.20;99.90
23497;DHT22;11925;48.122;11.560;2023-07-13T16:53:25;20.30;99.90
23497;DHT22;11925;48.122;11.560;2023-07-13T16:55:55;20.30;99.90
23497;DHT22;11925;48.122;11.560;2023-07-13T16:58:29;20.30;99.90
23497;DHT22;11925;48.122;11.560;2023-07-13T17:00:59;20.30;99.90
23497;DHT22;11925;48.122;11.560;2023-07-13T17:03:30;20.30;99.90
23497;DHT22;11925;48.122;11.560;2023-07-13T17:06:04;20.20;99.90
23497;DHT22;11925;48.122;11.560;2023-07-13T17:08:39;20.30;99.90
23497;DHT22;11925;48.122;11.560;2023-07-13T17:11:07;20.30;99.90
23497;DHT22;11925;48.122;11.560;2023-07-13T17:13:35;20.20;99.90
23497;DHT22;11925;48.122;11.560;2023-07-13T17:16:07;20.20;99.90
23497;DHT22;11925;48.122;11.560;2023-07-13T17:18:37;20.20;99.90
23497;DHT22;11925;48.122;11.560;2023-07-13T17:21:13;20.20;99.90
23497;DHT22;11925;48.122;11.560;2023-07-13T17:23:42;20.20;99.90
23497;DHT22;11925;48.122;11.560;2023-07-13T17:26:10;20.30;99.90
23497;DHT22;11925;48.122;11.560;2023-07-13T17:28:40;20.20;99.90
23497;DHT22;11925;48.122;11.560;2023-07-13T17:33:46;20.30;99.90
23497;DHT22;11925;48.122;11.560;2023-07-13T17:36:16;20.30;99.90
23497;DHT22;11925;48.122;11.560;2023-07-13T17:38:47;20.20;99.90
23497;DHT22;11925;48.122;11.560;2023-07-13T17:41:18;20.20;99.90
23497;DHT22;11925;48.122;11.560;2023-07-13T17:43:46;20.20;99.90
23497;DHT22;11925;48.122;11.560;2023-07-13T17:46:16;20.20;99.90
23497;DHT22;11925;48.122;11.560;2023-07-13T17:48:46;20.20;99.90
23497;DHT22;11925;48.122;11.560;2023-07-13T17:51:19;20.20;99.90
23497;DHT22;11925;48.122;11.560;2023-07-13T17:53:49;20.30;99.90
23497;DHT22;11925;48.122;11.560;2023-07-13T17:56:18;20.20;99.90
23497;DHT22;11925;48.122;11.560;2023-07-13T17:58:46;20.20;99.90
23497;DHT22;11925;48.122;11.560;2023-07-13T18:01:18;20.20;99.90
23497;DHT22;11925;48.122;11.560;2023-07-13T18:03:49;20.20;99.90
23497;DHT22;11925;48.122;11.560;2023-07-13T18:06:25;20.20;99.90
23497;DHT22;11925;48.122;11.560;2023-07-13T18:08:57;20.20;99.90
23497;DHT22;11925;48.122;11.560;2023-07-13T18:11:31;20.20;99.90
23497;DHT22;11925;48.122;11.560;2023-07-13T18:13:59;20.20;99.90
23497;DHT22;11925;48.122;11.560;2023-07-13T18:16:29;20.20;99.90
23497;DHT22;11925;48.122;11.560;2023-07-13T18:19:00;20.20;99.90
23497;DHT22;11925;48.122;11.560;2023-07-13T18:21:31;20.20;99.90
23497;DHT22;11925;48.122;11.560;2023-07-13T18:24:00;20.20;99.90
23497;DHT22;11925;48.122;11.560;2023-07-13T18:26:31;20.20;99.90
23497;DHT22;11925;48.122;11.560;2023-07-13T18:29:01;20.20;99.90
23497;DHT22;11925;48.122;11.560;2023-07-13T18:31:35;20.20;99.90
23497;DHT22;11925;48.122;11.560;2023-07-13T18:34:10;20.20;99.90
23497;DHT22;11925;48.122;11.560;2023-07-13T18:36:41;20.20;99.90
23497;DHT22;11925;48.122;11.560;2023-07-13T18:39:14;20.20;99.90
23497;DHT22;11925;48.122;11.560;2023-07-13T18:41:43;20.20;99.90
23497;DHT22;11925;48.122;11.560;2023-07-13T18:44:13;20.20;99.90